createdAt,value
2023-10-09T00:00:00.000Z,20.69
2023-10-09T00:15:00.000Z,20.85
2023-10-09T00:30:00.000Z,19.72
2023-10-09T00:45:00.000Z,18.34
2023-10-09T01:00:00.000Z,17.07
2023-10-09T01:15:00.000Z,17.49
2023-10-09T01:30:00.000Z,17.4
2023-10-09T01:45:00.000Z,18.08
2023-10-09T02:00:00.000Z,18.45
2023-10-09T02:15:00.000Z,17.28
2023-10-09T02:30:00.000Z,17.71
2023-10-09T02:45:00.000Z,16.67
2023-10-09T03:00:00.000Z,17.12
2023-10-09T03:15:00.000Z,16.66
2023-10-09T03:30:00.000Z,16.31
2023-10-09T03:45:00.000Z,16.4
2023-10-09T04:00:00.000Z,15.3
2023-10-09T04:15:00.000Z,16.51
2023-10-09T04:30:00.000Z,18.18
2023-10-09T04:45:00.000Z,18.22
2023-10-09T05:00:00.000Z,16.76
2023-10-09T05:15:00.000Z,16.48
2023-10-09T05:30:00.000Z,16.95
2023-10-09T05:45:00.000Z,17.32
2023-10-09T06:00:00.000Z,16.28
2023-10-09T06:15:00.000Z,15.74
2023-10-09T06:30:00.000Z,15.18
2023-10-09T06:45:00.000Z,15.39
2023-10-09T07:00:00.000Z,15.38
2023-10-09T07:15:00.000Z,13.88
2023-10-09T07:30:00.000Z,13.98
2023-10-09T07:45:00.000Z,13.88
2023-10-09T08:00:00.000Z,13.24
2023-10-09T08:15:00.000Z,14.01
2023-10-09T08:30:00.000Z,14.62
2023-10-09T08:45:00.000Z,15.65
2023-10-09T09:00:00.000Z,15.33
2023-10-09T09:15:00.000Z,16.82
2023-10-09T09:30:00.000Z,19.06
2023-10-09T09:45:00.000Z,16.87
2023-10-09T10:00:00.000Z,14.24
2023-10-09T10:15:00.000Z,13.09
2023-10-09T10:30:00.000Z,15
2023-10-09T10:45:00.000Z,15.47
2023-10-09T11:00:00.000Z,17.35
2023-10-09T11:15:00.000Z,18
2023-10-09T11:30:00.000Z,16.78
2023-10-09T11:45:00.000Z,14.28
2023-10-09T12:00:00.000Z,15.05
2023-10-09T12:15:00.000Z,15.01
2023-10-09T12:30:00.000Z,15.53
2023-10-09T12:45:00.000Z,14.65
2023-10-09T13:00:00.000Z,15.81
2023-10-09T13:15:00.000Z,19.08
2023-10-09T13:30:00.000Z,17.38
2023-10-09T13:45:00.000Z,16.89
2023-10-09T14:00:00.000Z,24.53
2023-10-09T14:15:00.000Z,21.11
2023-10-09T14:30:00.000Z,28.31
2023-10-09T14:45:00.000Z,23.49
2023-10-09T15:00:00.000Z,18.18
2023-10-09T15:15:00.000Z,20.48
2023-10-09T15:30:00.000Z,21.33
2023-10-09T15:45:00.000Z,19.85
2023-10-09T16:00:00.000Z,17.01
2023-10-09T16:15:00.000Z,17.92
2023-10-09T16:30:00.000Z,17.85
2023-10-09T16:45:00.000Z,16.41
2023-10-09T17:00:00.000Z,16.87
2023-10-09T17:15:00.000Z,17.02
2023-10-09T17:30:00.000Z,18.05
2023-10-09T17:45:00.000Z,17.4
2023-10-09T18:00:00.000Z,18.59
2023-10-09T18:15:00.000Z,17.04
2023-10-09T18:30:00.000Z,14.53
2023-10-09T18:45:00.000Z,13.81
2023-10-09T19:00:00.000Z,13.6
2023-10-09T19:15:00.000Z,13.78
2023-10-09T19:30:00.000Z,12.47
2023-10-09T19:45:00.000Z,12.94
2023-10-09T20:00:00.000Z,13.65
2023-10-09T20:15:00.000Z,12.26
2023-10-09T20:30:00.000Z,14.45
2023-10-09T20:45:00.000Z,12.88
2023-10-09T21:00:00.000Z,13.55
2023-10-09T21:15:00.000Z,12.91
2023-10-09T21:30:00.000Z,12.34
2023-10-09T21:45:00.000Z,12.46
2023-10-09T22:00:00.000Z,11.89
2023-10-09T22:15:00.000Z,12.94
2023-10-09T22:30:00.000Z,12.59
2023-10-09T22:45:00.000Z,12.69
2023-10-09T23:00:00.000Z,12.64
2023-10-09T23:15:00.000Z,12.96
2023-10-09T23:30:00.000Z,12.86
2023-10-09T23:45:00.000Z,13.12
